Time;durP1;ratioP1;P1;durP2;ratioP2;P2;SDS_P1;SDS_P2;PMS_P1;PMS_P2;Temp;Humidity;BMP_temperature;BMP_pressure;BME280_temperature;BME280_humidity;BME280_pressure;Samples;Min_cycle;Max_cycle;Signal;HPM_P1;HPM_P2
2022/08/08 00:02:14;;;;;;;3.75;2.78;;;20.20;99.90;;;;;;5006761;28;20057;-77
2022/08/08 00:04:46;;;;;;;2.63;2.30;;;20.20;99.90;;;;;;5043841;28;20022;-77
2022/08/08 00:07:17;;;;;;;4.88;2.80;;;20.20;99.90;;;;;;5042657;28;20034;-78
2022/08/08 00:10:02;;;;;;;5.07;2.92;;;20.10;99.90;;;;;;5042607;28;20069;-78
2022/08/08 00:12:41;;;;;;;5.45;2.53;;;20.20;99.90;;;;;;5044203;28;20017;-78
2022/08/08 00:15:18;;;;;;;4.53;2.30;;;20.20;99.90;;;;;;5042512;28;20037;-76
2022/08/08 00:17:47;;;;;;;3.45;2.38;;;20.20;99.90;;;;;;5043287;28;20029;-77
2022/08/08 00:20:45;;;;;;;4.57;2.45;;;20.20;99.90;;;;;;5027023;28;20025;-77
2022/08/08 00:23:33;;;;;;;4.45;2.60;;;20.40;99.90;;;;;;5007934;28;20456;-79
2022/08/08 00:26:03;;;;;;;4.90;2.20;;;20.40;99.90;;;;;;5021095;28;20048;-76
2022/08/08 00:28:40;;;;;;;4.28;2.38;;;20.40;99.90;;;;;;5004108;28;20511;-77
2022/08/08 00:31:16;;;;;;;4.10;2.20;;;20.20;99.90;;;;;;5040387;28;20025;-78
2022/08/08 00:35:09;;;;;;;6.47;2.53;;;20.20;99.90;;;;;;5045225;28;20025;-77
2022/08/08 00:36:48;;;;;;;2.58;2.30;;;20.10;99.90;;;;;;5039124;28;20409;-76
2022/08/08 00:39:20;;;;;;;4.40;2.42;;;20.10;99.90;;;;;;5021710;28;20440;-78
2022/08/08 00:42:23;;;;;;;2.97;2.42;;;20.00;99.90;;;;;;5020023;28;20117;-77
2022/08/08 00:45:08;;;;;;;3.72;2.20;;;20.00;99.90;;;;;;5037259;28;20034;-77
2022/08/08 00:48:08;;;;;;;5.90;2.88;;;20.00;99.90;;;;;;5019907;28;20057;-78
2022/08/08 00:51:07;;;;;;;4.20;2.33;;;20.00;99.90;;;;;;5001915;28;20064;-77
2022/08/08 00:53:59;;;;;;;3.92;2.28;;;20.10;99.90;;;;;;5044448;28;20078;-77
2022/08/08 00:56:47;;;;;;;5.25;2.70;;;20.00;99.90;;;;;;5027164;28;20095;-77
2022/08/08 00:59:47;;;;;;;3.15;2.20;;;20.00;99.90;;;;;;5027723;28;20093;-77
2022/08/08 01:02:58;;;;;;;7.85;2.38;;;19.90;99.90;;;;;;5024442;28;20032;-77
2022/08/08 01:05:32;;;;;;;;;;;19.90;99.90;;;;;;5025083;28;20025;-76
2022/08/08 01:08:07;;;;;;;5.55;2.78;;;19.90;99.90;;;;;;5021041;28;20325;-77
2022/08/08 01:11:24;;;;;;;3.65;2.25;;;19.90;99.90;;;;;;5022712;28;20052;-77
2022/08/08 01:14:35;;;;;;;5.40;2.50;;;19.80;99.90;;;;;;5021355;28;20083;-77
2022/08/08 01:17:41;;;;;;;5.18;2.75;;;19.80;99.90;;;;;;5020321;28;20034;-78
2022/08/08 01:20:34;;;;;;;5.38;2.83;;;19.80;99.90;;;;;;5021489;28;20048;-77
2022/08/08 01:23:24;;;;;;;5.90;2.70;;;19.70;99.90;;;;;;5029740;28;20037;-77
2022/08/08 01:26:18;;;;;;;4.00;3.05;;;19.70;99.90;;;;;;5027049;28;20421;-77
2022/08/08 01:29:21;;;;;;;3.47;2.53;;;19.60;99.90;;;;;;5028651;28;20033;-77
2022/08/08 01:32:06;;;;;;;4.10;2.35;;;19.60;99.90;;;;;;5028202;28;20041;-77
2022/08/08 01:34:51;;;;;;;;;;;19.50;99.90;;;;;;5033723;28;20030;-77
2022/08/08 01:37:56;;;;;;;9.05;3.47;;;19.50;99.90;;;;;;5029650;28;19909;-77
2022/08/08 01:40:32;;;;;;;7.20;2.90;;;19.50;99.90;;;;;;5019293;28;20037;-76
2022/08/08 01:43:18;;;;;;;6.22;3.03;;;19.40;99.90;;;;;;5020003;28;20037;-78
2022/08/08 01:46:10;;;;;;;4.70;2.60;;;19.40;99.90;;;;;;5042090;28;20087;-77
2022/08/08 01:48:47;;;;;;;10.10;3.13;;;19.40;99.90;;;;;;5018895;28;20025;-77
2022/08/08 01:51:37;;;;;;;6.88;2.50;;;19.30;99.90;;;;;;5018422;28;20035;-78
2022/08/08 01:54:32;;;;;;;7.13;2.70;;;19.20;99.90;;;;;;5019020;28;20034;-79
2022/08/08 01:57:37;;;;;;;3.63;2.30;;;19.20;99.90;;;;;;5017303;28;20120;-78
2022/08/08 02:00:12;;;;;;;3.30;2.50;;;19.20;99.90;;;;;;5018150;28;20393;-76
2022/08/08 02:02:53;;;;;;;5.18;2.30;;;19.10;99.90;;;;;;5017049;28;20029;-77
2022/08/08 02:05:39;;;;;;;;;;;19.10;99.90;;;;;;5018160;28;20040;-77
2022/08/08 02:08:10;;;;;;;;;;;19.10;99.90;;;;;;5020460;28;19920;-77
2022/08/08 02:11:02;;;;;;;3.15;2.58;;;19.10;99.90;;;;;;5020238;28;20292;-77
2022/08/08 02:14:02;;;;;;;5.70;2.90;;;19.10;99.90;;;;;;5021069;28;20087;-77
2022/08/08 02:17:03;;;;;;;5.93;2.28;;;19.10;99.90;;;;;;5000871;28;20060;-77
2022/08/08 02:19:36;;;;;;;3.38;2.33;;;19.10;99.90;;;;;;5041072;28;20030;-78
2022/08/08 02:22:35;;;;;;;5.07;2.90;;;19.10;99.90;;;;;;5040579;28;20021;-79
2022/08/08 02:25:41;;;;;;;7.43;2.60;;;19.10;99.90;;;;;;5026308;28;20040;-77
2022/08/08 02:28:34;;;;;;;3.65;2.65;;;19.20;99.90;;;;;;5020256;28;20067;-78
2022/08/08 02:31:11;;;;;;;7.53;2.92;;;19.20;99.90;;;;;;5018627;28;20026;-79
2022/08/08 02:34:05;;;;;;;5.07;2.58;;;19.20;99.90;;;;;;5019806;28;20025;-76
2022/08/08 02:36:49;;;;;;;3.83;2.70;;;19.20;99.90;;;;;;5023191;28;20021;-77
2022/08/08 02:39:25;;;;;;;5.15;2.72;;;19.20;99.90;;;;;;5024402;28;20128;-77
2022/08/08 02:42:07;;;;;;;3.15;2.60;;;19.10;99.90;;;;;;5025163;28;20032;-77
2022/08/08 02:44:54;;;;;;;3.83;2.70;;;19.00;99.90;;;;;;5025722;28;20032;-78
2022/08/08 02:47:58;;;;;;;5.15;2.80;;;19.00;99.90;;;;;;5009213;28;20029;-78
2022/08/08 02:50:42;;;;;;;4.28;2.35;;;18.90;99.90;;;;;;5030589;28;20093;-76
2022/08/08 02:53:20;;;;;;;5.32;2.70;;;18.80;99.90;;;;;;5029203;28;20041;-76
2022/08/08 02:56:12;;;;;;;4.40;2.67;;;18.80;99.90;;;;;;5031362;28;20025;-76
2022/08/08 02:59:11;;;;;;;4.68;2.65;;;18.70;99.90;;;;;;5014899;28;20040;-77
2022/08/08 03:02:22;;;;;;;4.32;2.55;;;18.70;99.90;;;;;;5036014;28;20044;-77
2022/08/08 03:04:58;;;;;;;7.78;3.13;;;18.60;99.90;;;;;;5030236;28;20033;-76
2022/08/08 03:07:49;;;;;;;5.05;2.70;;;18.60;99.90;;;;;;5044985;28;20036;-76
2022/08/08 03:10:53;;;;;;;4.97;3.15;;;18.60;99.90;;;;;;5024934;28;20022;-78
2022/08/08 03:13:53;;;;;;;5.05;2.53;;;18.50;99.90;;;;;;5043461;28;20469;-77
2022/08/08 03:16:39;;;;;;;5.72;3.08;;;18.50;99.90;;;;;;5029212;28;20110;-76
2022/08/08 03:19:19;;;;;;;4.10;2.70;;;18.40;99.90;;;;;;5028347;28;20034;-78
2022/08/08 03:21:44;;;;;;;6.60;2.97;;;18.40;99.90;;;;;;5023516;28;20088;-76
2022/08/08 03:24:10;;;;;;;4.07;2.63;;;18.40;99.90;;;;;;5022035;28;20435;-77
2022/08/08 03:26:42;;;;;;;4.53;2.55;;;18.50;99.90;;;;;;5020358;28;20063;-77
2022/08/08 03:29:14;;;;;;;3.50;3.00;;;18.60;99.90;;;;;;5020521;28;20575;-78
2022/08/08 03:34:24;;;;;;;5.35;3.00;;;18.80;99.90;;;;;;5038399;28;20025;-77
2022/08/08 03:36:51;;;;;;;3.80;2.60;;;18.80;99.90;;;;;;5025771;28;20032;-77
2022/08/08 03:39:18;;;;;;;3.97;2.55;;;18.80;99.90;;;;;;5038677;28;20124;-76
2022/08/08 03:41:46;;;;;;;4.43;2.70;;;18.70;99.90;;;;;;5014139;28;20035;-77
2022/08/08 03:44:12;;;;;;;3.72;2.78;;;18.60;99.90;;;;;;5023664;28;20452;-78
2022/08/08 03:46:49;;;;;;;4.88;2.63;;;18.60;99.90;;;;;;5020571;28;20025;-77
2022/08/08 03:49:22;;;;;;;6.05;2.55;;;18.50;99.90;;;;;;5035394;28;20021;-78
2022/08/08 03:51:54;;;;;;;4.35;2.75;;;18.40;99.90;;;;;;5027490;28;20030;-77
2022/08/08 03:54:25;;;;;;;8.60;3.05;;;18.40;99.90;;;;;;5010866;28;20032;-77
2022/08/08 03:56:51;;;;;;;6.35;3.03;;;18.40;99.90;;;;;;5018475;28;20121;-78
2022/08/08 03:59:18;;;;;;;9.07;2.90;;;18.40;99.90;;;;;;5018556;28;20131;-77
2022/08/08 04:01:44;;;;;;;5.07;2.65;;;18.30;99.90;;;;;;5022838;28;20032;-77
2022/08/08 04:04:10;;;;;;;8.75;3.22;;;18.30;99.90;;;;;;5039518;28;20017;-77
2022/08/08 04:06:39;;;;;;;6.80;2.63;;;18.30;99.90;;;;;;5022206;28;20064;-77
2022/08/08 04:09:07;;;;;;;6.53;2.95;;;18.40;99.90;;;;;;5029093;28;20078;-79
2022/08/08 04:11:39;;;;;;;6.05;2.72;;;18.40;99.90;;;;;;5019117;28;20026;-76
2022/08/08 04:14:05;;;;;;;3.75;2.55;;;18.30;99.90;;;;;;5037687;28;20528;-78
2022/08/08 04:16:32;;;;;;;10.27;2.95;;;18.40;99.90;;;;;;5012016;28;20507;-78
2022/08/08 04:18:58;;;;;;;6.47;2.58;;;18.30;99.90;;;;;;5039021;28;20108;-76
2022/08/08 04:21:24;;;;;;;4.53;2.70;;;18.40;99.90;;;;;;5025087;28;20017;-76
2022/08/08 04:23:55;;;;;;;3.25;2.20;;;18.40;99.90;;;;;;5034166;28;20084;-78
2022/08/08 04:26:21;;;;;;;5.28;2.88;;;18.40;99.90;;;;;;5040951;28;20481;-79
2022/08/08 04:28:47;;;;;;;3.03;2.13;;;18.40;99.90;;;;;;5025262;28;20013;-78
2022/08/08 04:31:13;;;;;;;6.65;3.13;;;18.40;99.90;;;;;;5024142;28;20026;-78
2022/08/08 04:33:38;;;;;;;3.65;2.63;;;18.40;99.90;;;;;;5035144;28;20067;-78
2022/08/08 04:36:05;;;;;;;11.57;2.58;;;18.50;99.90;;;;;;5043182;28;20014;-78
2022/08/08 04:38:31;;;;;;;4.45;2.40;;;18.50;99.90;;;;;;5009691;28;20022;-79
2022/08/08 04:40:58;;;;;;;5.60;2.33;;;18.70;99.90;;;;;;5024279;28;20064;-77
2022/08/08 04:43:25;;;;;;;4.75;2.45;;;18.70;99.90;;;;;;5027274;28;20017;-77
2022/08/08 04:45:54;;;;;;;6.70;2.60;;;18.80;99.90;;;;;;5015199;28;20045;-78
2022/08/08 04:48:20;;;;;;;9.23;2.40;;;18.80;99.90;;;;;;5037441;28;20032;-77
2022/08/08 04:50:45;;;;;;;6.07;2.65;;;18.90;99.90;;;;;;5022152;28;20025;-76
2022/08/08 04:53:14;;;;;;;5.13;2.08;;;18.90;99.90;;;;;;5018244;28;20053;-76
2022/08/08 04:55:41;;;;;;;2.47;2.03;;;18.90;99.90;;;;;;5017995;28;20025;-78
2022/08/08 04:58:12;;;;;;;6.03;2.20;;;19.00;99.90;;;;;;5048942;23;20042;-82
2022/08/08 05:00:40;;;;;;;4.47;2.42;;;19.00;99.90;;;;;;5013018;28;20041;-84
2022/08/08 05:03:06;;;;;;;6.50;2.10;;;19.10;99.90;;;;;;5030116;28;20040;-83
2022/08/08 05:05:32;;;;;;;8.45;2.20;;;19.10;99.90;;;;;;5028130;28;20022;-83
2022/08/08 05:07:58;;;;;;;5.70;2.53;;;19.20;99.90;;;;;;5028002;28;20041;-85
2022/08/08 05:10:28;;;;;;;8.50;2.50;;;19.30;99.90;;;;;;5006188;28;20098;-86
2022/08/08 05:12:58;;;;;;;6.95;2.10;;;19.40;99.90;;;;;;5008687;28;20026;-84
2022/08/08 05:15:24;;;;;;;5.18;2.40;;;19.30;99.90;;;;;;5023888;28;20077;-86
2022/08/08 05:17:51;;;;;;;5.55;2.22;;;19.30;99.90;;;;;;4997176;28;20045;-81
2022/08/08 05:20:17;;;;;;;7.35;2.40;;;19.30;99.90;;;;;;4999144;28;20050;-85
2022/08/08 05:22:43;;;;;;;2.72;2.15;;;19.40;99.90;;;;;;4997834;28;20044;-86
2022/08/08 05:25:10;;;;;;;6.10;2.60;;;19.40;99.90;;;;;;4997092;28;20026;-84
2022/08/08 05:27:36;;;;;;;6.40;2.45;;;19.50;99.90;;;;;;4999617;28;20038;-85
2022/08/08 05:30:03;;;;;;;6.90;2.22;;;19.60;99.90;;;;;;5013343;28;20088;-88
2022/08/08 05:32:41;;;;;;;4.13;2.08;;;19.50;99.90;;;;;;5012388;28;20018;-82
2022/08/08 05:35:12;;;;;;;5.18;2.08;;;19.40;99.90;;;;;;4999338;28;20121;-84
2022/08/08 05:37:49;;;;;;;3.58;1.75;;;19.40;99.90;;;;;;4999655;28;20034;-87
2022/08/08 05:40:16;;;;;;;6.40;1.90;;;19.40;99.90;;;;;;4999194;28;20058;-84
2022/08/08 05:42:45;;;;;;;4.57;1.60;;;19.40;99.90;;;;;;5026543;28;20061;-86
2022/08/08 05:45:12;;;;;;;2.45;1.60;;;19.40;99.90;;;;;;5009308;28;20037;-87
2022/08/08 05:47:40;;;;;;;7.55;2.10;;;19.30;99.90;;;;;;4991763;28;20053;-89
2022/08/08 05:50:08;;;;;;;3.33;2.05;;;19.40;99.90;;;;;;5008371;28;20058;-87
2022/08/08 05:52:38;;;;;;;6.25;1.88;;;19.40;99.90;;;;;;5003229;28;20018;-86
2022/08/08 05:55:08;;;;;;;5.95;2.10;;;19.50;99.90;;;;;;5007452;28;20024;-87
2022/08/08 05:57:37;;;;;;;6.43;1.75;;;19.60;99.90;;;;;;5008388;28;20017;-87
2022/08/08 06:00:09;;;;;;;8.80;2.20;;;19.80;99.90;;;;;;5019315;28;20009;-86
2022/08/08 06:05:33;;;;;;;4.93;2.10;;;19.80;99.80;;;;;;5027454;28;20028;-85
2022/08/08 06:08:00;;;;;;;3.22;1.75;;;19.90;99.70;;;;;;5005688;28;20057;-87
2022/08/08 06:10:31;;;;;;;2.13;1.50;;;19.80;99.20;;;;;;5005797;28;20113;-86
2022/08/08 06:13:00;;;;;;;5.25;1.95;;;19.90;99.30;;;;;;5005211;28;20026;-87
2022/08/08 06:15:28;;;;;;;6.85;1.70;;;20.00;99.30;;;;;;5003537;28;20026;-87
2022/08/08 06:17:56;;;;;;;5.93;1.77;;;20.20;99.50;;;;;;5006767;28;20098;-87
2022/08/08 06:20:22;;;;;;;3.45;1.98;;;20.40;99.20;;;;;;5003884;28;20088;-87
2022/08/08 06:22:49;;;;;;;4.00;1.67;;;20.50;98.20;;;;;;4985714;28;20045;-88
2022/08/08 06:25:17;;;;;;;8.05;2.42;;;20.50;98.70;;;;;;5005415;28;20023;-87
2022/08/08 06:27:53;;;;;;;4.30;1.90;;;20.50;98.00;;;;;;5007457;28;20041;-85
2022/08/08 06:30:21;;;;;;;3.70;1.75;;;20.60;98.30;;;;;;5004766;28;20042;-85
2022/08/08 06:32:55;;;;;;;4.57;1.58;;;20.70;98.40;;;;;;5003942;28;20018;-85
2022/08/08 06:35:24;;;;;;;7.53;1.60;;;20.90;97.40;;;;;;5004191;28;20033;-88
2022/08/08 06:38:00;;;;;;;3.28;1.95;;;20.90;97.20;;;;;;5004477;28;20045;-86
2022/08/08 06:40:31;;;;;;;4.38;1.90;;;21.00;97.70;;;;;;5005623;28;20050;-87
2022/08/08 06:43:06;;;;;;;3.60;1.70;;;21.10;97.20;;;;;;5009210;28;20026;-86
2022/08/08 06:45:40;;;;;;;5.95;1.80;;;21.20;96.80;;;;;;5012960;28;20068;-87
2022/08/08 06:48:07;;;;;;;7.00;1.70;;;21.40;97.00;;;;;;4999599;28;20057;-85
2022/08/08 06:50:36;;;;;;;9.60;1.73;;;21.60;96.30;;;;;;4989797;28;20090;-88
2022/08/08 06:53:06;;;;;;;4.90;1.70;;;21.70;95.80;;;;;;4992366;28;20050;-88
2022/08/08 06:55:34;;;;;;;6.90;1.85;;;21.60;96.00;;;;;;5025039;28;20527;-87
2022/08/08 06:58:00;;;;;;;5.30;1.67;;;21.60;95.80;;;;;;5010943;28;20500;-87
2022/08/08 07:00:31;;;;;;;4.75;1.77;;;21.60;95.40;;;;;;4992397;28;20034;-87
2022/08/08 07:03:01;;;;;;;3.20;1.73;;;21.50;95.40;;;;;;5007900;28;20026;-88
2022/08/08 07:05:32;;;;;;;3.90;1.85;;;21.70;95.30;;;;;;5009972;28;20344;-85
2022/08/08 07:08:19;;;;;;;5.20;1.83;;;21.70;95.40;;;;;;5029824;28;20076;-86
2022/08/08 07:10:52;;;;;;;5.65;2.28;;;21.70;95.20;;;;;;4998410;28;20041;-87
2022/08/08 07:13:19;;;;;;;5.35;2.42;;;21.60;95.40;;;;;;5012910;28;20037;-85
2022/08/08 07:16:02;;;;;;;3.97;1.75;;;21.40;95.50;;;;;;5007865;28;20014;-86
2022/08/08 07:19:18;;;;;;;5.47;1.58;;;21.50;95.60;;;;;;5003824;28;20033;-84
2022/08/08 07:22:02;;;;;;;5.88;2.80;;;21.60;95.50;;;;;;4956031;28;20095;-86
2022/08/08 07:24:57;;;;;;;7.72;1.80;;;21.70;95.60;;;;;;4951478;28;20035;-83
2022/08/08 07:27:25;;;;;;;1.88;1.48;;;21.70;95.50;;;;;;4997848;28;20096;-86
2022/08/08 07:29:52;;;;;;;8.52;1.75;;;21.70;95.50;;;;;;5004945;28;20052;-85
2022/08/08 07:32:18;;;;;;;6.57;2.08;;;21.60;95.50;;;;;;5018693;28;20034;-84
2022/08/08 07:34:49;;;;;;;5.38;1.60;;;21.60;95.40;;;;;;5018799;28;20029;-83
2022/08/08 07:37:17;;;;;;;6.60;1.60;;;21.50;95.50;;;;;;5018852;28;20028;-83
2022/08/08 07:39:44;;;;;;;4.63;2.00;;;21.60;95.80;;;;;;5019706;28;20013;-84
2022/08/08 07:42:12;;;;;;;4.60;1.85;;;21.30;95.60;;;;;;5019190;28;20014;-84
2022/08/08 07:44:41;;;;;;;9.82;1.85;;;21.20;95.90;;;;;;5018508;28;20117;-86
2022/08/08 07:47:10;;;;;;;3.63;1.90;;;21.10;96.20;;;;;;5018130;28;20045;-86
2022/08/08 07:49:38;;;;;;;15.73;1.63;;;21.10;96.10;;;;;;5017993;28;20007;-82
2022/08/08 07:52:10;;;;;;;5.35;1.95;;;20.90;96.20;;;;;;5019730;28;20022;-84
2022/08/08 07:55:08;;;;;;;7.05;2.15;;;20.60;96.70;;;;;;5036906;28;20226;-86
2022/08/08 07:58:20;;;;;;;6.07;1.75;;;20.60;97.00;;;;;;5019353;28;20022;-85
2022/08/08 08:00:52;;;;;;;7.50;2.05;;;20.60;99.90;;;;;;5020748;28;20041;-85
2022/08/08 08:03:32;;;;;;;11.55;2.70;;;20.40;99.80;;;;;;5023019;28;20030;-86
2022/08/08 08:06:05;;;;;;;29.65;17.45;;;20.30;99.90;;;;;;5023253;28;20050;-88
2022/08/08 08:08:55;;;;;;;16.52;7.93;;;20.20;99.90;;;;;;5020073;28;20049;-88
2022/08/08 08:11:27;;;;;;;8.32;2.40;;;19.90;99.90;;;;;;5017410;28;20061;-89
2022/08/08 08:14:01;;;;;;;7.13;2.33;;;19.70;99.90;;;;;;5011872;28;20038;-85
2022/08/08 08:16:31;;;;;;;11.13;2.47;;;19.60;99.90;;;;;;5000875;28;20026;-85
2022/08/08 08:19:02;;;;;;;7.82;2.25;;;19.50;99.90;;;;;;5003477;28;20272;-89
2022/08/08 08:21:38;;;;;;;12.32;2.08;;;19.40;99.90;;;;;;4997279;28;20022;-87
2022/08/08 08:24:04;;;;;;;10.18;2.42;;;19.20;99.90;;;;;;5012361;28;20027;-88
2022/08/08 08:26:30;;;;;;;10.70;2.40;;;19.10;99.90;;;;;;4995099;28;20117;-87
2022/08/08 08:28:57;;;;;;;20.52;5.82;;;19.10;99.90;;;;;;5016543;28;20030;-86
2022/08/08 08:31:24;;;;;;;8.23;3.05;;;19.10;99.90;;;;;;5017572;28;20006;-85
2022/08/08 08:33:50;;;;;;;7.72;2.90;;;19.20;99.90;;;;;;5018468;28;20026;-86
2022/08/08 08:36:17;;;;;;;5.85;2.53;;;19.30;99.90;;;;;;4996924;28;20036;-87
2022/08/08 08:38:44;;;;;;;8.93;2.20;;;19.30;99.90;;;;;;5015135;28;20037;-85
2022/08/08 08:41:13;;;;;;;15.20;2.10;;;19.40;99.90;;;;;;5014540;28;20057;-85
2022/08/08 08:43:45;;;;;;;14.30;2.70;;;19.40;99.90;;;;;;5012110;28;20037;-87
2022/08/08 08:46:13;;;;;;;5.80;2.60;;;19.40;99.90;;;;;;5011406;28;20431;-87
2022/08/08 08:48:41;;;;;;;8.10;2.88;;;19.40;99.90;;;;;;4977786;28;20062;-88
2022/08/08 08:51:13;;;;;;;6.90;2.58;;;19.40;99.90;;;;;;4996678;28;20064;-88
2022/08/08 08:53:44;;;;;;;4.97;2.90;;;19.30;99.90;;;;;;4995007;28;20057;-90
2022/08/08 08:56:22;;;;;;;4.07;2.17;;;19.40;99.90;;;;;;4994415;28;20034;-86
2022/08/08 08:58:52;;;;;;;13.05;2.72;;;19.40;99.90;;;;;;4993892;28;20141;-88
2022/08/08 09:01:26;;;;;;;5.45;1.90;;;19.40;99.90;;;;;;4995190;28;20034;-88
2022/08/08 09:03:58;;;;;;;6.47;2.03;;;19.50;99.90;;;;;;4994623;28;20117;-88
2022/08/08 09:06:36;;;;;;;29.25;2.60;;;19.50;99.90;;;;;;4995208;28;20502;-88
2022/08/08 09:09:09;;;;;;;7.18;2.20;;;19.50;99.90;;;;;;4997201;28;20071;-88
2022/08/08 09:11:39;;;;;;;7.00;1.90;;;19.50;99.90;;;;;;4994703;28;20069;-88
2022/08/08 09:14:08;;;;;;;3.03;1.95;;;19.50;99.90;;;;;;4978563;28;20041;-89
2022/08/08 09:16:35;;;;;;;6.95;2.30;;;19.50;99.90;;;;;;4995603;28;20038;-89
2022/08/08 09:19:03;;;;;;;5.80;2.38;;;19.40;99.90;;;;;;5010664;28;20050;-87
2022/08/08 09:21:30;;;;;;;2.80;2.15;;;19.40;99.90;;;;;;4993308;28;20093;-88
2022/08/08 09:24:07;;;;;;;17.85;2.63;;;19.30;99.90;;;;;;4992755;28;20019;-90
2022/08/08 09:26:48;;;;;;;6.63;1.85;;;19.30;99.90;;;;;;5009766;28;20026;-89
2022/08/08 09:29:23;;;;;;;5.22;2.00;;;19.20;99.90;;;;;;5010366;28;20030;-89
2022/08/08 09:31:54;;;;;;;6.05;2.40;;;19.20;99.90;;;;;;4994810;28;20503;-90
2022/08/08 09:34:24;;;;;;;6.57;2.47;;;19.20;99.90;;;;;;4993324;28;20030;-88
2022/08/08 09:37:01;;;;;;;8.05;2.85;;;19.20;99.90;;;;;;4976963;28;20018;-88
2022/08/08 09:39:31;;;;;;;9.40;3.00;;;19.20;99.90;;;;;;4996379;28;20037;-89
2022/08/08 09:42:03;;;;;;;6.68;2.28;;;19.30;99.90;;;;;;5016855;28;20018;-88
2022/08/08 09:44:57;;;;;;;4.68;2.15;;;19.30;99.90;;;;;;5001792;28;20029;-91
2022/08/08 09:47:27;;;;;;;12.27;2.53;;;19.40;99.90;;;;;;4995263;28;20053;-89
2022/08/08 09:49:56;;;;;;;7.72;1.90;;;19.50;99.90;;;;;;4998869;28;20118;-88
2022/08/08 09:52:23;;;;;;;8.27;2.78;;;19.50;99.90;;;;;;5001735;28;20058;-90
2022/08/08 09:54:49;;;;;;;3.42;2.40;;;19.50;99.90;;;;;;5015263;28;20050;-88
2022/08/08 09:57:28;;;;;;;4.68;2.20;;;19.30;99.90;;;;;;4997630;28;20030;-88
2022/08/08 09:59:57;;;;;;;4.88;2.10;;;19.40;99.90;;;;;;4993900;28;20049;-87
2022/08/08 10:02:29;;;;;;;9.73;2.38;;;19.60;99.90;;;;;;5011478;28;20033;-87
2022/08/08 10:05:04;;;;;;;6.22;3.42;;;19.70;99.90;;;;;;4997382;28;20034;-87
2022/08/08 10:07:30;;;;;;;6.07;2.38;;;19.70;99.90;;;;;;4992676;28;20041;-88
2022/08/08 10:09:56;;;;;;;3.72;2.15;;;19.80;99.90;;;;;;4991758;28;20482;-88
2022/08/08 10:12:37;;;;;;;6.00;1.92;;;19.70;99.90;;;;;;4992526;28;20034;-89
2022/08/08 10:15:05;;;;;;;3.50;2.03;;;19.70;99.90;;;;;;4992161;28;20476;-88
2022/08/08 10:17:42;;;;;;;3.20;1.73;;;19.60;99.90;;;;;;4997063;28;20040;-89
2022/08/08 10:20:08;;;;;;;6.60;2.17;;;19.60;99.90;;;;;;4994912;28;20034;-88
2022/08/08 10:22:42;;;;;;;5.53;2.17;;;19.40;99.90;;;;;;5004086;28;20014;-88
2022/08/08 10:25:13;;;;;;;8.23;1.90;;;19.30;99.90;;;;;;4996743;28;20034;-86
2022/08/08 10:27:43;;;;;;;4.28;2.05;;;19.20;99.90;;;;;;4992761;28;20034;-90
2022/08/08 10:30:10;;;;;;;6.82;2.13;;;19.00;99.90;;;;;;4994031;28;20040;-89
2022/08/08 10:32:40;;;;;;;11.43;2.35;;;18.90;99.90;;;;;;5010335;28;20097;-87
2022/08/08 10:35:14;;;;;;;5.28;2.30;;;18.90;99.90;;;;;;4992390;28;20037;-89
2022/08/08 10:37:54;;;;;;;4.68;2.65;;;18.80;99.90;;;;;;4991647;28;20035;-89
2022/08/08 10:40:21;;;;;;;6.00;2.20;;;18.80;99.90;;;;;;5014054;28;20132;-88
2022/08/08 10:42:52;;;;;;;5.78;2.55;;;18.80;99.90;;;;;;5019017;28;20011;-88
2022/08/08 10:45:18;;;;;;;9.63;2.47;;;18.90;99.90;;;;;;5021438;28;20018;-91
2022/08/08 10:47:52;;;;;;;5.53;2.28;;;19.00;99.90;;;;;;5005207;28;20050;-91
2022/08/08 10:50:18;;;;;;;10.87;2.93;;;19.00;99.90;;;;;;5018320;28;20021;-89
2022/08/08 10:52:44;;;;;;;9.23;3.45;;;19.00;99.90;;;;;;5002023;28;20313;-90
2022/08/08 10:55:18;;;;;;;9.90;3.03;;;19.10;99.90;;;;;;5012743;28;20033;-92
2022/08/08 10:57:48;;;;;;;6.30;2.47;;;19.20;99.90;;;;;;5050810;23;20038;-79
2022/08/08 11:00:21;;;;;;;8.90;2.55;;;19.20;99.90;;;;;;5008187;28;20086;-80
2022/08/08 11:02:47;;;;;;;9.27;3.22;;;19.20;99.90;;;;;;5010670;28;20026;-81
2022/08/08 11:05:13;;;;;;;6.97;3.50;;;19.30;99.90;;;;;;5003135;28;20046;-79
2022/08/08 11:07:41;;;;;;;10.40;3.13;;;19.30;99.90;;;;;;5001327;28;20611;-79
2022/08/08 11:10:13;;;;;;;8.20;3.53;;;19.30;99.90;;;;;;4999447;28;20033;-79
2022/08/08 11:12:49;;;;;;;6.90;3.40;;;19.30;99.90;;;;;;5001039;28;20033;-80
2022/08/08 11:15:17;;;;;;;11.40;4.07;;;19.20;99.90;;;;;;4982764;28;20034;-79
2022/08/08 11:17:44;;;;;;;7.47;3.88;;;19.20;99.90;;;;;;4999057;28;20023;-80
2022/08/08 11:20:16;;;;;;;10.10;3.75;;;19.20;99.90;;;;;;4999595;28;20037;-80
2022/08/08 11:22:42;;;;;;;6.50;3.60;;;19.20;99.90;;;;;;4999902;28;20034;-79
2022/08/08 11:25:11;;;;;;;7.95;4.35;;;19.20;99.90;;;;;;4999682;28;20049;-80
2022/08/08 11:27:37;;;;;;;9.82;4.47;;;19.10;99.90;;;;;;4997231;28;20117;-81
2022/08/08 11:30:06;;;;;;;11.27;4.57;;;19.00;99.90;;;;;;4979310;28;20458;-80
2022/08/08 11:32:37;;;;;;;9.02;4.47;;;18.90;99.90;;;;;;4996956;28;20030;-81
2022/08/08 11:35:12;;;;;;;13.60;4.55;;;18.90;99.90;;;;;;4980300;28;20054;-81
2022/08/08 11:37:40;;;;;;;8.80;3.92;;;18.90;99.90;;;;;;5002676;28;20030;-79
2022/08/08 11:40:09;;;;;;;7.00;3.90;;;18.90;99.90;;;;;;5007129;28;20034;-80
2022/08/08 11:42:35;;;;;;;6.82;4.00;;;18.90;99.90;;;;;;4985865;28;20034;-81
2022/08/08 11:45:02;;;;;;;8.55;3.83;;;18.90;99.90;;;;;;5003542;28;20030;-80
2022/08/08 11:47:28;;;;;;;6.43;3.65;;;18.80;99.90;;;;;;5004870;28;20109;-81
2022/08/08 11:49:56;;;;;;;8.07;4.20;;;18.90;99.90;;;;;;5003713;28;20058;-80
2022/08/08 11:52:24;;;;;;;6.25;4.28;;;19.00;99.90;;;;;;5003067;28;20027;-80
2022/08/08 11:54:50;;;;;;;5.40;3.67;;;19.10;99.90;;;;;;5001970;28;20479;-82
2022/08/08 11:57:24;;;;;;;7.68;3.50;;;19.30;99.90;;;;;;5001320;28;20069;-82
2022/08/08 12:00:03;;;;;;;9.85;3.83;;;19.50;99.90;;;;;;4984158;28;20038;-80
2022/08/08 12:02:49;;;;;;;6.72;3.35;;;19.50;99.90;;;;;;5002273;28;20073;-80
2022/08/08 12:05:17;;;;;;;14.73;4.25;;;19.50;99.90;;;;;;4984688;28;20035;-80
2022/08/08 12:07:53;;;;;;;9.02;3.33;;;19.60;99.90;;;;;;4990150;28;20023;-80
2022/08/08 12:10:24;;;;;;;10.20;3.28;;;19.80;99.90;;;;;;4986484;28;20228;-79
2022/08/08 12:13:02;;;;;;;8.60;3.60;;;19.80;99.90;;;;;;4987477;28;20432;-79
2022/08/08 12:15:30;;;;;;;7.13;3.58;;;19.90;99.90;;;;;;4989137;28;20074;-79
2022/08/08 12:17:56;;;;;;;6.70;3.72;;;19.80;99.90;;;;;;4986330;28;20026;-80
2022/08/08 12:20:22;;;;;;;9.25;4.07;;;19.40;99.90;;;;;;4982616;28;20035;-80
2022/08/08 12:22:53;;;;;;;9.02;4.10;;;19.20;99.90;;;;;;4981681;28;20030;-82
2022/08/08 12:25:24;;;;;;;10.07;3.80;;;19.00;99.90;;;;;;5004530;28;20034;-80
2022/08/08 12:27:51;;;;;;;7.88;4.57;;;19.10;99.90;;;;;;4987689;28;20045;-80
2022/08/08 12:30:29;;;;;;;8.60;4.65;;;19.10;99.90;;;;;;4987771;28;20533;-81
2022/08/08 12:32:58;;;;;;;17.63;10.43;;;18.90;99.90;;;;;;4989993;28;20033;-80
2022/08/08 12:35:26;;;;;;;10.05;5.18;;;18.80;99.90;;;;;;4988748;28;20030;-82
2022/08/08 12:38:11;;;;;;;9.35;4.88;;;18.80;99.90;;;;;;4989235;28;20027;-80
2022/08/08 12:40:51;;;;;;;11.45;4.72;;;18.80;99.90;;;;;;5004752;28;20026;-81
2022/08/08 12:43:30;;;;;;;11.27;4.50;;;18.80;99.90;;;;;;5005908;28;20552;-81
2022/08/08 12:45:56;;;;;;;11.13;5.03;;;18.80;99.90;;;;;;4994216;28;20057;-80
2022/08/08 12:48:24;;;;;;;6.78;4.47;;;18.70;99.90;;;;;;5023760;28;20048;-82
2022/08/08 12:50:53;;;;;;;6.55;4.60;;;18.80;99.90;;;;;;5023000;28;20042;-84
2022/08/08 12:53:28;;;;;;;11.35;4.63;;;18.80;99.90;;;;;;5039240;28;20018;-85
2022/08/08 12:56:05;;;;;;;6.30;4.10;;;18.90;99.90;;;;;;5009979;28;20038;-82
2022/08/08 12:58:49;;;;;;;8.25;4.25;;;19.00;99.90;;;;;;4998577;28;20037;-80
2022/08/08 13:01:15;;;;;;;10.25;4.32;;;18.90;99.90;;;;;;5017905;28;20042;-82
2022/08/08 13:03:49;;;;;;;5.28;3.70;;;19.00;99.90;;;;;;5020189;28;20048;-80
2022/08/08 13:06:19;;;;;;;12.40;4.15;;;19.00;99.90;;;;;;5022915;28;20096;-80
2022/08/08 13:08:50;;;;;;;7.68;3.65;;;19.00;99.90;;;;;;5011454;28;20106;-79
2022/08/08 13:11:33;;;;;;;11.77;4.13;;;19.00;99.90;;;;;;5015526;28;20023;-83
2022/08/08 13:14:03;;;;;;;7.68;4.13;;;18.90;99.90;;;;;;4996837;28;20630;-80
2022/08/08 13:16:33;;;;;;;8.15;3.70;;;18.80;99.90;;;;;;4988231;28;20031;-79
2022/08/08 13:19:02;;;;;;;5.25;3.72;;;18.80;99.90;;;;;;4989305;28;20055;-83
2022/08/08 13:21:30;;;;;;;12.05;4.22;;;18.90;99.90;;;;;;4989134;28;20106;-81
2022/08/08 13:23:57;;;;;;;7.13;4.18;;;19.00;99.90;;;;;;4989192;28;20094;-82
2022/08/08 13:26:29;;;;;;;7.00;4.50;;;19.10;99.90;;;;;;4991245;28;20023;-83
2022/08/08 13:28:56;;;;;;;8.32;4.32;;;19.10;99.90;;;;;;4987743;28;20090;-82
2022/08/08 13:31:21;;;;;;;6.88;4.25;;;18.90;99.90;;;;;;4997469;28;20027;-80